Time;durP1;ratioP1;P1;durP2;ratioP2;P2;SDS_P1;SDS_P2;PMS_P1;PMS_P2;Temp;Humidity;BMP_temperature;BMP_pressure;BME280_temperature;BME280_humidity;BME280_pressure;Samples;Min_cycle;Max_cycle;Signal;HPM_P1;HPM_P2
2022/11/15 00:02:04;;;;;;;6.53;5.57;;;19.40;50.00;;;;;;5113504;28;20450;-11
2022/11/15 00:04:48;;;;;;;5.80;5.05;;;19.40;50.00;;;;;;5113435;28;20059;-11
2022/11/15 00:07:32;;;;;;;7.50;5.55;;;19.40;50.00;;;;;;5113168;28;20058;-11
2022/11/15 00:10:16;;;;;;;6.07;5.10;;;19.40;50.00;;;;;;5113388;28;20054;-11
2022/11/15 00:13:05;;;;;;;6.90;5.57;;;19.40;50.50;;;;;;5113280;28;20077;-11
2022/11/15 00:15:49;;;;;;;6.10;5.20;;;19.40;50.00;;;;;;5113241;28;20548;-11
2022/11/15 00:18:33;;;;;;;6.65;5.50;;;19.40;49.90;;;;;;5113181;28;20074;-11
2022/11/15 00:21:18;;;;;;;6.85;5.10;;;19.40;49.90;;;;;;5113137;28;20070;-11
2022/11/15 00:24:02;;;;;;;6.28;5.22;;;19.50;50.50;;;;;;5113389;28;20462;-11
2022/11/15 00:26:49;;;;;;;5.82;5.22;;;19.40;50.00;;;;;;5113354;28;20084;-11
2022/11/15 00:29:33;;;;;;;6.13;4.95;;;19.40;50.00;;;;;;5112971;28;20498;-11
2022/11/15 00:32:18;;;;;;;6.80;5.47;;;19.40;50.00;;;;;;5113370;28;20502;-11
2022/11/15 00:35:02;;;;;;;6.97;5.03;;;19.40;50.00;;;;;;5113456;28;20066;-11
2022/11/15 00:37:47;;;;;;;6.53;5.60;;;19.40;50.00;;;;;;5113056;28;20419;-11
2022/11/15 00:40:32;;;;;;;5.63;4.63;;;19.40;50.00;;;;;;5112938;28;20116;-11
2022/11/15 00:43:16;;;;;;;7.32;5.50;;;19.40;49.90;;;;;;5113264;28;20063;-11
2022/11/15 00:46:02;;;;;;;6.25;5.00;;;19.40;49.90;;;;;;5112924;28;20103;-11
2022/11/15 00:48:46;;;;;;;6.40;5.22;;;19.40;49.90;;;;;;5109944;28;20113;-11
2022/11/15 00:51:30;;;;;;;6.35;5.22;;;19.40;49.90;;;;;;5112882;28;20054;-11
2022/11/15 00:54:14;;;;;;;5.68;4.85;;;19.40;49.90;;;;;;5109421;28;20410;-11
2022/11/15 00:56:58;;;;;;;5.78;4.75;;;19.50;50.00;;;;;;5116517;28;20415;-11
2022/11/15 00:59:42;;;;;;;5.75;5.07;;;19.40;49.90;;;;;;5116285;28;20601;-11
2022/11/15 01:02:27;;;;;;;6.63;5.05;;;19.40;49.90;;;;;;5116363;28;20058;-11
2022/11/15 01:05:11;;;;;;;6.78;4.72;;;19.40;49.90;;;;;;5116553;28;20451;-11
2022/11/15 01:07:56;;;;;;;5.90;5.15;;;19.40;49.90;;;;;;5116478;28;20065;-11
2022/11/15 01:10:40;;;;;;;6.28;5.32;;;19.40;50.40;;;;;;5116220;28;20093;-11
2022/11/15 01:13:25;;;;;;;5.75;5.05;;;19.40;49.90;;;;;;5116315;28;20112;-11
2022/11/15 01:16:18;;;;;;;6.38;4.70;;;19.40;49.90;;;;;;5116131;28;20062;-11
2022/11/15 01:19:03;;;;;;;5.78;4.63;;;19.40;49.90;;;;;;5116276;28;20051;-11
2022/11/15 01:21:51;;;;;;;6.95;5.10;;;19.40;49.90;;;;;;5116578;28;20103;-11
2022/11/15 01:24:35;;;;;;;6.25;5.38;;;19.40;50.00;;;;;;5115964;28;20058;-11
2022/11/15 01:27:19;;;;;;;5.57;4.88;;;19.40;50.00;;;;;;5100862;28;20407;-11
2022/11/15 01:30:04;;;;;;;5.63;4.97;;;19.40;49.90;;;;;;5116030;28;20094;-11
2022/11/15 01:32:48;;;;;;;7.30;5.40;;;19.40;49.90;;;;;;5116070;28;20050;-10
2022/11/15 01:35:32;;;;;;;5.53;4.78;;;19.40;50.00;;;;;;5115712;28;20074;-11
2022/11/15 01:38:16;;;;;;;6.30;5.00;;;19.40;50.00;;;;;;5115583;28;20112;-11
2022/11/15 01:41:01;;;;;;;4.90;4.30;;;19.40;49.90;;;;;;5115496;28;20061;-11
2022/11/15 01:43:49;;;;;;;5.78;4.57;;;19.40;50.50;;;;;;5115683;28;20054;-11
2022/11/15 01:46:34;;;;;;;6.13;5.05;;;19.40;49.90;;;;;;5115897;28;20102;-11
2022/11/15 01:49:22;;;;;;;5.22;4.53;;;19.40;49.80;;;;;;5115844;28;20059;-11
2022/11/15 01:52:11;;;;;;;5.63;4.68;;;19.40;49.90;;;;;;5115818;28;20097;-11
2022/11/15 01:55:22;;;;;;;5.82;5.10;;;19.40;49.80;;;;;;5115320;28;20058;-11
2022/11/15 01:58:07;;;;;;;6.10;4.65;;;19.40;49.80;;;;;;5116065;28;20042;-11
2022/11/15 02:00:52;;;;;;;6.80;5.50;;;19.40;49.80;;;;;;5115454;28;20414;-11
2022/11/15 02:03:56;;;;;;;6.22;5.35;;;19.40;49.80;;;;;;5115663;28;20054;-11
2022/11/15 02:06:42;;;;;;;5.50;4.65;;;19.40;49.80;;;;;;5114151;28;20089;-11
2022/11/15 02:09:26;;;;;;;5.25;4.75;;;19.40;49.80;;;;;;5115272;28;20062;-11
2022/11/15 02:12:15;;;;;;;6.30;5.25;;;19.40;49.80;;;;;;5112553;28;20128;-11
2022/11/15 02:15:00;;;;;;;6.47;5.22;;;19.40;49.80;;;;;;5115074;28;20563;-11
2022/11/15 02:18:07;;;;;;;5.93;4.60;;;19.40;49.80;;;;;;5113065;28;20159;-11
2022/11/15 02:21:00;;;;;;;5.60;4.63;;;19.40;49.80;;;;;;5114919;28;20559;-11
2022/11/15 02:24:22;;;;;;;5.38;4.70;;;19.40;49.80;;;;;;5115290;28;20513;-10
2022/11/15 02:27:43;;;;;;;5.53;5.03;;;19.40;49.80;;;;;;5114907;28;20051;-11
2022/11/15 02:31:05;;;;;;;4.43;4.00;;;19.40;49.80;;;;;;5114954;28;20066;-11
2022/11/15 02:33:56;;;;;;;6.15;5.05;;;19.40;49.80;;;;;;5115044;28;20058;-11
2022/11/15 02:36:59;;;;;;;5.55;4.75;;;19.40;49.70;;;;;;5115363;28;20142;-11
2022/11/15 02:40:13;;;;;;;5.57;4.88;;;19.40;49.80;;;;;;5114721;28;20112;-11
2022/11/15 02:49:37;;;;;;;6.60;5.28;;;19.50;49.60;;;;;;5114918;28;20528;-11
2022/11/15 02:52:23;;;;;;;5.35;4.63;;;19.60;49.60;;;;;;5114578;28;20050;-11
2022/11/15 02:55:26;;;;;;;6.00;5.30;;;19.50;49.50;;;;;;5113917;28;20050;-11
2022/11/15 02:58:37;;;;;;;5.70;4.65;;;19.60;49.50;;;;;;5114186;28;20548;-11
2022/11/15 03:01:53;;;;;;;5.28;4.55;;;19.60;49.50;;;;;;5114736;28;20117;-11
2022/11/15 03:04:52;;;;;;;5.00;4.50;;;19.60;49.40;;;;;;5114648;28;20058;-11
2022/11/15 03:07:47;;;;;;;5.57;4.72;;;19.60;49.30;;;;;;5114182;28;20101;-11
2022/11/15 03:10:46;;;;;;;6.53;4.97;;;19.60;49.30;;;;;;5114506;28;20101;-11
2022/11/15 03:13:36;;;;;;;6.13;4.93;;;19.60;49.30;;;;;;5114715;28;20520;-11
2022/11/15 03:16:27;;;;;;;4.72;4.28;;;19.70;49.20;;;;;;5114420;28;20054;-11
2022/11/15 03:19:34;;;;;;;5.72;4.63;;;19.70;49.20;;;;;;5113528;28;20058;-11
2022/11/15 03:22:22;;;;;;;6.22;5.18;;;19.80;49.20;;;;;;5114286;28;20054;-11
2022/11/15 03:25:10;;;;;;;5.82;5.00;;;19.80;49.10;;;;;;5113983;28;20526;-11
2022/11/15 03:27:57;;;;;;;5.45;4.40;;;19.80;49.10;;;;;;5113892;28;20572;-11
2022/11/15 03:30:44;;;;;;;5.30;4.35;;;19.80;49.10;;;;;;5114236;28;20099;-11
2022/11/15 03:33:29;;;;;;;4.78;4.30;;;19.80;49.10;;;;;;5114034;28;20069;-11
2022/11/15 03:36:14;;;;;;;6.00;4.88;;;19.80;49.00;;;;;;5114168;28;20556;-11
2022/11/15 03:39:04;;;;;;;5.53;4.60;;;19.80;49.00;;;;;;5113686;28;20472;-10
2022/11/15 03:42:15;;;;;;;4.38;3.60;;;19.80;49.00;;;;;;5098997;28;20112;-11
2022/11/15 03:45:19;;;;;;;5.25;4.15;;;19.80;48.90;;;;;;5113644;28;20054;-11
2022/11/15 03:48:24;;;;;;;5.85;4.95;;;19.90;49.00;;;;;;5113745;28;20061;-11
2022/11/15 03:51:09;;;;;;;4.80;4.30;;;19.90;48.90;;;;;;5113594;28;20066;-11
2022/11/15 03:53:53;;;;;;;5.72;4.82;;;19.90;48.90;;;;;;5113883;28;20115;-11
2022/11/15 03:56:37;;;;;;;5.10;4.30;;;19.90;48.80;;;;;;5113735;28;20111;-11
2022/11/15 03:59:23;;;;;;;5.43;4.45;;;19.90;48.80;;;;;;5098505;28;20502;-11
2022/11/15 04:02:08;;;;;;;5.32;4.40;;;19.90;48.80;;;;;;5114065;28;20100;-11
2022/11/15 04:04:52;;;;;;;6.30;5.00;;;19.90;48.80;;;;;;5114009;28;20047;-11
2022/11/15 04:07:36;;;;;;;5.40;4.90;;;19.90;48.80;;;;;;5113215;28;20112;-11
2022/11/15 04:10:20;;;;;;;4.78;4.03;;;20.00;48.80;;;;;;5113308;28;20138;-11
2022/11/15 04:13:04;;;;;;;7.07;4.95;;;20.00;48.80;;;;;;5113351;28;20414;-11
2022/11/15 04:15:48;;;;;;;5.20;4.63;;;20.00;48.70;;;;;;5113124;28;20078;-11
2022/11/15 04:18:32;;;;;;;4.70;4.20;;;20.00;48.70;;;;;;5112810;28;20107;-11
2022/11/15 04:24:20;;;;;;;5.70;4.63;;;20.00;48.60;;;;;;5113032;28;20050;-11
2022/11/15 04:27:04;;;;;;;4.90;3.97;;;20.00;48.60;;;;;;5113165;28;20098;-11
2022/11/15 04:29:48;;;;;;;5.45;4.80;;;20.00;48.50;;;;;;5112252;28;20416;-11
2022/11/15 04:32:32;;;;;;;5.85;4.30;;;20.00;48.60;;;;;;5113361;28;20062;-11
2022/11/15 04:35:16;;;;;;;4.32;3.92;;;20.00;48.60;;;;;;5113057;28;20548;-11
2022/11/15 04:38:03;;;;;;;4.97;4.47;;;20.00;48.60;;;;;;5113235;28;20090;-11
2022/11/15 04:40:47;;;;;;;5.20;4.32;;;20.00;48.60;;;;;;5113165;28;20399;-11
2022/11/15 04:43:31;;;;;;;4.88;4.32;;;20.00;48.60;;;;;;5110090;28;20540;-11
2022/11/15 04:46:15;;;;;;;5.13;4.47;;;20.00;48.60;;;;;;5109433;28;20105;-11
2022/11/15 04:48:59;;;;;;;5.45;4.43;;;20.00;48.70;;;;;;5108787;28;20067;-11
2022/11/15 04:51:43;;;;;;;4.95;4.45;;;20.00;48.70;;;;;;5112882;28;20058;-11
2022/11/15 04:54:27;;;;;;;5.43;4.53;;;20.00;48.70;;;;;;5113019;28;20524;-11
2022/11/15 04:57:12;;;;;;;6.03;4.75;;;20.00;48.70;;;;;;5112779;28;20102;-11
2022/11/15 04:59:55;;;;;;;4.55;4.13;;;19.90;48.70;;;;;;5112633;28;20120;-11
2022/11/15 05:05:43;;;;;;;4.50;4.05;;;19.90;48.70;;;;;;5112631;28;20139;-11
2022/11/15 05:08:27;;;;;;;5.00;4.22;;;19.90;48.80;;;;;;5112719;28;20075;-11
2022/11/15 05:11:11;;;;;;;5.68;4.82;;;19.90;48.80;;;;;;5112524;28;20055;-11
2022/11/15 05:13:55;;;;;;;5.03;4.53;;;19.90;48.70;;;;;;5112465;28;20055;-11
2022/11/15 05:16:41;;;;;;;6.25;4.55;;;19.90;48.70;;;;;;5112522;28;20143;-11
2022/11/15 05:19:25;;;;;;;4.95;4.15;;;19.90;48.70;;;;;;5112448;28;20552;-11
2022/11/15 05:22:09;;;;;;;4.90;4.40;;;19.90;48.80;;;;;;5112534;28;20097;-11
2022/11/15 05:24:53;;;;;;;5.07;4.57;;;19.90;48.80;;;;;;5112721;28;20065;-11
2022/11/15 05:27:37;;;;;;;4.70;4.13;;;19.90;48.80;;;;;;5112920;28;20118;-11
2022/11/15 05:30:22;;;;;;;5.13;4.20;;;19.90;48.80;;;;;;5112629;28;20066;-11
2022/11/15 05:33:07;;;;;;;4.75;3.80;;;19.90;48.80;;;;;;5112923;28;20054;-11
2022/11/15 05:36:00;;;;;;;5.30;4.10;;;19.90;48.80;;;;;;5112563;28;20506;-11
2022/11/15 05:38:45;;;;;;;4.35;3.95;;;19.90;48.80;;;;;;5112029;28;20103;-11
2022/11/15 05:41:37;;;;;;;4.32;3.92;;;19.90;48.80;;;;;;5097311;28;20104;-11
2022/11/15 05:44:25;;;;;;;4.25;3.80;;;19.90;48.80;;;;;;5115701;28;20104;-11
2022/11/15 05:47:15;;;;;;;4.68;4.20;;;19.90;48.80;;;;;;5115960;28;20059;-11
2022/11/15 05:49:59;;;;;;;4.90;4.43;;;19.90;48.80;;;;;;5113278;28;20104;-11
2022/11/15 05:52:45;;;;;;;4.32;3.92;;;19.90;48.80;;;;;;5115818;28;20059;-11
2022/11/15 05:55:29;;;;;;;4.80;3.90;;;19.90;48.80;;;;;;5115721;28;20059;-11
2022/11/15 05:58:14;;;;;;;4.93;4.13;;;19.90;48.80;;;;;;5115578;28;20089;-10
2022/11/15 06:01:00;;;;;;;5.28;4.40;;;19.90;49.30;;;;;;5115420;28;20055;-11
2022/11/15 06:03:44;;;;;;;6.10;4.53;;;19.90;48.80;;;;;;5115408;28;20411;-11
2022/11/15 06:06:28;;;;;;;4.25;3.85;;;19.90;48.70;;;;;;5115406;28;20097;-11
2022/11/15 06:09:13;;;;;;;4.57;4.15;;;19.90;48.80;;;;;;5112035;28;20116;-11
2022/11/15 06:11:58;;;;;;;5.53;4.47;;;19.90;48.80;;;;;;5115537;28;20058;-11
2022/11/15 06:14:42;;;;;;;5.07;4.40;;;19.90;49.30;;;;;;5115029;28;20105;-11
2022/11/15 06:17:28;;;;;;;5.32;4.30;;;19.90;48.70;;;;;;5115295;28;20092;-11
2022/11/15 06:20:12;;;;;;;5.78;4.82;;;19.90;48.70;;;;;;5115116;28;20181;-11
2022/11/15 06:23:01;;;;;;;5.55;4.53;;;19.90;48.70;;;;;;5115358;28;20118;-11
2022/11/15 06:25:45;;;;;;;5.00;4.47;;;19.90;48.70;;;;;;5100121;28;20055;-11
2022/11/15 06:28:31;;;;;;;4.43;4.00;;;19.90;48.80;;;;;;5115130;28;20058;-11
2022/11/15 06:31:16;;;;;;;5.28;4.57;;;19.90;48.70;;;;;;5115198;28;20090;-11
2022/11/15 06:34:00;;;;;;;4.68;4.18;;;19.90;48.70;;;;;;5115048;28;20096;-11
2022/11/15 06:36:44;;;;;;;4.95;4.30;;;19.90;48.70;;;;;;5114739;28;20109;-11
2022/11/15 06:39:28;;;;;;;5.22;4.68;;;19.90;48.70;;;;;;5114933;28;20074;-11
2022/11/15 06:42:12;;;;;;;4.90;4.20;;;19.90;48.70;;;;;;5114708;28;20070;-11
2022/11/15 06:44:56;;;;;;;4.80;4.28;;;19.90;48.70;;;;;;5114977;28;20506;-11
2022/11/15 06:47:47;;;;;;;5.75;4.47;;;19.90;48.70;;;;;;5114205;28;20054;-11
2022/11/15 06:50:31;;;;;;;5.07;4.50;;;19.90;48.70;;;;;;5114642;28;20101;-11
2022/11/15 06:53:15;;;;;;;6.43;5.05;;;19.90;48.70;;;;;;5114322;28;20116;-11
2022/11/15 06:56:04;;;;;;;5.85;4.53;;;19.90;48.60;;;;;;5114328;28;20120;-11
2022/11/15 06:58:48;;;;;;;5.03;4.53;;;19.90;48.60;;;;;;5114409;28;20435;-11
2022/11/15 07:01:32;;;;;;;4.10;3.70;;;19.90;48.70;;;;;;5113713;28;20113;-11
2022/11/15 07:04:20;;;;;;;5.05;3.97;;;19.90;48.70;;;;;;5114501;28;20503;-11
2022/11/15 07:07:04;;;;;;;4.25;3.85;;;19.90;48.70;;;;;;5114236;28;20117;-11
2022/11/15 07:09:48;;;;;;;6.07;4.35;;;19.90;48.60;;;;;;5113440;28;20089;-11
2022/11/15 07:12:32;;;;;;;5.72;4.57;;;19.90;48.60;;;;;;5114106;28;20455;-11
2022/11/15 07:15:18;;;;;;;4.55;4.03;;;19.90;48.60;;;;;;5113938;28;20082;-11
2022/11/15 07:18:02;;;;;;;4.07;3.38;;;19.90;48.60;;;;;;5114026;28;20552;-11
2022/11/15 07:20:47;;;;;;;5.70;4.55;;;19.90;48.60;;;;;;5114330;28;20074;-11
2022/11/15 07:23:31;;;;;;;4.57;3.90;;;19.90;48.60;;;;;;5114317;28;20511;-11
2022/11/15 07:26:16;;;;;;;4.57;4.05;;;19.90;48.60;;;;;;5114219;28;20063;-11
2022/11/15 07:29:00;;;;;;;5.28;4.72;;;19.90;48.60;;;;;;5113918;28;20475;-11
2022/11/15 07:31:44;;;;;;;5.78;4.50;;;20.00;48.60;;;;;;5113803;28;20449;-11
2022/11/15 07:34:28;;;;;;;5.00;4.20;;;19.90;48.50;;;;;;5113652;28;20059;-11
2022/11/15 07:37:12;;;;;;;4.70;4.07;;;20.00;48.60;;;;;;5113779;28;20062;-11
2022/11/15 07:39:57;;;;;;;4.25;3.80;;;20.00;48.60;;;;;;5113908;28;20057;-11
2022/11/15 07:42:53;;;;;;;4.07;3.67;;;19.90;48.50;;;;;;5114157;28;20058;-11
2022/11/15 07:45:42;;;;;;;4.93;4.07;;;20.00;49.10;;;;;;5113535;28;20081;-11
2022/11/15 07:48:26;;;;;;;4.55;4.10;;;20.00;48.60;;;;;;5113611;28;20548;-11
2022/11/15 07:51:13;;;;;;;4.47;4.03;;;20.00;48.60;;;;;;5113817;28;20070;-11
2022/11/15 07:53:57;;;;;;;4.38;3.97;;;20.00;48.60;;;;;;5113626;28;20096;-11
2022/11/15 07:56:41;;;;;;;4.95;4.18;;;20.00;48.60;;;;;;5113670;28;20055;-11
2022/11/15 07:59:27;;;;;;;5.55;4.32;;;20.00;48.60;;;;;;5113924;28;20105;-11
2022/11/15 08:02:11;;;;;;;4.55;3.78;;;20.00;48.60;;;;;;5113932;28;20407;-11
2022/11/15 08:04:55;;;;;;;4.43;3.92;;;20.00;48.60;;;;;;5112180;28;20536;-11
2022/11/15 08:07:40;;;;;;;4.38;3.83;;;20.00;48.50;;;;;;5113310;28;20419;-11
2022/11/15 08:10:25;;;;;;;5.15;4.65;;;20.00;48.50;;;;;;5113910;28;20067;-11
2022/11/15 08:13:11;;;;;;;4.45;3.92;;;20.00;48.50;;;;;;5113186;28;20109;-11
2022/11/15 08:16:00;;;;;;;4.55;3.72;;;20.00;48.50;;;;;;5113331;28;20070;-11
2022/11/15 08:18:45;;;;;;;4.35;3.85;;;20.00;48.50;;;;;;5113325;28;20143;-12
2022/11/15 08:21:29;;;;;;;5.72;4.03;;;20.00;48.50;;;;;;5113336;28;20057;-12
2022/11/15 08:24:13;;;;;;;5.28;4.13;;;20.00;48.50;;;;;;5113133;28;20451;-11
2022/11/15 08:26:57;;;;;;;4.38;3.88;;;20.00;48.50;;;;;;5113361;28;20062;-11
2022/11/15 08:29:43;;;;;;;4.13;3.72;;;20.00;48.50;;;;;;5113173;28;20565;-12
2022/11/15 08:32:27;;;;;;;5.05;4.13;;;20.00;48.50;;;;;;5113192;28;20501;-11
2022/11/15 08:35:12;;;;;;;4.60;4.10;;;20.00;48.50;;;;;;5111726;28;20100;-12
2022/11/15 08:37:57;;;;;;;4.13;3.60;;;20.00;48.60;;;;;;5112717;28;20479;-11
2022/11/15 08:40:41;;;;;;;4.78;4.30;;;20.00;48.50;;;;;;5112870;28;20552;-11
2022/11/15 08:43:26;;;;;;;4.55;3.92;;;20.00;48.50;;;;;;5097201;28;20085;-11
2022/11/15 08:46:14;;;;;;;4.38;3.67;;;20.00;48.50;;;;;;5112854;28;20062;-11
2022/11/15 08:48:58;;;;;;;4.55;3.90;;;20.00;48.50;;;;;;5112561;28;20192;-12
2022/11/15 08:51:42;;;;;;;5.22;4.38;;;20.00;48.50;;;;;;5112337;28;20549;-12
2022/11/15 08:54:27;;;;;;;4.28;3.88;;;20.00;48.50;;;;;;5112377;28;20055;-10
2022/11/15 08:57:11;;;;;;;5.45;4.05;;;20.00;48.50;;;;;;5110116;28;20062;-11
2022/11/15 08:59:56;;;;;;;4.53;3.85;;;20.00;48.40;;;;;;5112616;28;20537;-10
2022/11/15 09:02:40;;;;;;;4.15;3.75;;;20.00;48.40;;;;;;5112464;28;20088;-11
2022/11/15 09:05:25;;;;;;;4.35;3.95;;;20.00;48.40;;;;;;5112483;28;20058;-12
2022/11/15 09:08:11;;;;;;;4.85;4.07;;;20.00;48.40;;;;;;5112678;28;20054;-11
2022/11/15 09:10:55;;;;;;;4.10;3.70;;;20.00;48.40;;;;;;5112725;28;20086;-11
2022/11/15 09:13:40;;;;;;;4.55;3.88;;;20.00;48.40;;;;;;5112592;28;20557;-10
2022/11/15 09:16:24;;;;;;;4.07;3.67;;;20.00;48.40;;;;;;5114236;28;20061;-10
2022/11/15 09:19:09;;;;;;;4.95;3.85;;;20.00;48.40;;;;;;5116197;28;20140;-10
2022/11/15 09:21:55;;;;;;;4.13;3.72;;;20.10;48.40;;;;;;5112526;28;20053;-10
2022/11/15 09:24:39;;;;;;;3.65;3.35;;;20.10;48.40;;;;;;5116025;28;20059;-10
2022/11/15 09:27:30;;;;;;;5.00;4.50;;;20.10;48.30;;;;;;5115585;28;20088;-12
2022/11/15 09:30:15;;;;;;;4.97;4.10;;;20.10;48.30;;;;;;5114321;28;20161;-11
2022/11/15 09:33:05;;;;;;;4.65;4.05;;;20.10;48.30;;;;;;5115992;28;20176;-11
2022/11/15 09:35:50;;;;;;;4.90;4.20;;;20.10;48.30;;;;;;5115454;28;20066;-11
2022/11/15 09:38:34;;;;;;;6.38;3.70;;;20.10;48.30;;;;;;5115739;28;20085;-11
2022/11/15 09:41:38;;;;;;;5.00;4.05;;;20.10;48.30;;;;;;5114460;28;20095;-12
2022/11/15 09:44:42;;;;;;;8.07;4.22;;;20.10;48.30;;;;;;5115407;28;20139;-11
2022/11/15 09:47:42;;;;;;;3.95;3.55;;;20.10;48.80;;;;;;5111845;28;20082;-11
2022/11/15 09:50:46;;;;;;;5.13;4.47;;;20.10;48.20;;;;;;5096840;28;20054;-11
2022/11/15 09:53:18;;;;;;;5.20;3.47;;;20.10;48.20;;;;;;5115739;28;20067;-12
2022/11/15 09:55:57;;;;;;;5.47;4.38;;;20.10;48.20;;;;;;5112146;28;20372;-11
2022/11/15 09:58:36;;;;;;;4.60;3.83;;;20.10;48.20;;;;;;5115150;28;20142;-11
2022/11/15 10:01:08;;;;;;;4.93;3.88;;;20.10;48.20;;;;;;5096458;28;20188;-12
2022/11/15 10:03:37;;;;;;;5.13;4.40;;;20.10;48.10;;;;;;5115088;28;20051;-11
2022/11/15 10:06:06;;;;;;;4.18;3.80;;;20.10;48.10;;;;;;5113710;28;20055;-12
2022/11/15 10:08:35;;;;;;;5.07;3.72;;;20.20;48.20;;;;;;5114909;28;20043;-11
2022/11/15 10:11:05;;;;;;;5.57;4.10;;;20.10;48.10;;;;;;5113843;28;20048;-15
2022/11/15 10:13:37;;;;;;;4.47;4.05;;;20.20;48.20;;;;;;5112367;28;20062;-12
2022/11/15 10:16:27;;;;;;;4.78;4.05;;;20.20;48.20;;;;;;5110970;28;20069;-12
2022/11/15 10:19:11;;;;;;;3.90;3.50;;;20.20;48.20;;;;;;5111293;28;20411;-12
2022/11/15 10:22:08;;;;;;;4.35;3.95;;;20.20;48.20;;;;;;5112246;28;20142;-12
2022/11/15 10:24:39;;;;;;;4.53;3.97;;;20.10;48.70;;;;;;5113510;28;20075;-13
2022/11/15 10:27:11;;;;;;;4.53;3.53;;;20.10;48.20;;;;;;5113734;28;20044;-11
2022/11/15 10:29:51;;;;;;;4.82;4.28;;;20.10;48.20;;;;;;5114978;28;20051;-11
2022/11/15 10:32:19;;;;;;;4.10;3.70;;;20.10;48.20;;;;;;5114832;28;20044;-11
2022/11/15 10:34:46;;;;;;;4.30;3.70;;;20.10;48.20;;;;;;5114969;28;20056;-11
2022/11/15 10:37:12;;;;;;;5.03;4.07;;;20.20;48.20;;;;;;5114227;28;20055;-12
2022/11/15 10:39:38;;;;;;;4.72;3.80;;;20.10;48.20;;;;;;5114617;28;20048;-11
2022/11/15 10:42:38;;;;;;;4.85;3.80;;;20.10;48.20;;;;;;5113806;28;20058;-11
2022/11/15 10:45:28;;;;;;;6.50;3.70;;;20.10;48.20;;;;;;5058352;28;20144;-12
2022/11/15 10:48:14;;;;;;;7.00;4.30;;;20.10;48.20;;;;;;5114273;28;20044;-12
2022/11/15 10:50:42;;;;;;;5.15;4.03;;;20.10;48.20;;;;;;5113882;28;20511;-11
2022/11/15 10:53:20;;;;;;;4.43;3.75;;;20.10;48.20;;;;;;5114216;28;20054;-11
2022/11/15 10:55:49;;;;;;;4.72;3.95;;;20.10;48.20;;;;;;5114350;28;20089;-10
2022/11/15 10:58:35;;;;;;;4.22;3.83;;;20.10;48.30;;;;;;5113987;28;20051;-12
2022/11/15 11:01:26;;;;;;;5.60;3.75;;;20.10;48.20;;;;;;5114314;28;20495;-9
2022/11/15 11:04:07;;;;;;;6.60;3.92;;;20.10;48.30;;;;;;5113901;28;20044;-10
2022/11/15 11:06:54;;;;;;;6.37;4.47;;;20.10;48.30;;;;;;5114079;28;20060;-9
2022/11/15 11:09:34;;;;;;;5.57;4.22;;;20.10;48.80;;;;;;5113725;28;20318;-10
2022/11/15 11:12:01;;;;;;;6.10;3.95;;;20.10;48.40;;;;;;5112280;28;20109;-11
2022/11/15 11:14:36;;;;;;;7.72;4.70;;;20.10;48.40;;;;;;5095098;28;20508;-11
2022/11/15 11:17:32;;;;;;;4.55;3.97;;;20.10;48.40;;;;;;5114385;28;20043;-11
2022/11/15 11:20:11;;;;;;;5.75;4.50;;;20.10;48.30;;;;;;5105127;28;20054;-11
2022/11/15 11:23:15;;;;;;;4.68;4.18;;;20.10;48.30;;;;;;5114270;28;20077;-11
2022/11/15 11:26:12;;;;;;;5.35;4.18;;;20.10;48.30;;;;;;5113791;28;20112;-10
2022/11/15 11:29:07;;;;;;;5.30;4.20;;;20.10;48.30;;;;;;5112002;28;20438;-11
2022/11/15 11:32:05;;;;;;;4.85;3.85;;;20.10;48.20;;;;;;5092890;28;20143;-12
2022/11/15 11:34:50;;;;;;;3.97;3.58;;;20.10;48.30;;;;;;5111954;28;20047;-11
2022/11/15 11:37:45;;;;;;;4.30;3.75;;;20.10;48.30;;;;;;5112858;28;20411;-11
2022/11/15 11:40:39;;;;;;;4.53;4.10;;;20.10;48.30;;;;;;5113201;28;20047;-10
2022/11/15 11:43:28;;;;;;;4.35;3.92;;;20.10;48.40;;;;;;5113663;28;20162;-10
2022/11/15 11:46:13;;;;;;;4.95;4.13;;;20.10;48.40;;;;;;5113580;28;20487;-10
2022/11/15 11:48:44;;;;;;;4.07;3.67;;;20.10;48.40;;;;;;5113606;28;20043;-10
2022/11/15 11:51:31;;;;;;;4.35;3.92;;;20.10;48.40;;;;;;5113626;28;20155;-10
2022/11/15 11:54:12;;;;;;;4.25;3.70;;;20.20;48.40;;;;;;5113303;28;20074;-10
2022/11/15 11:56:41;;;;;;;4.47;3.95;;;20.20;48.40;;;;;;5113513;28;20440;-10
2022/11/15 11:59:29;;;;;;;4.80;3.92;;;20.20;48.40;;;;;;5113057;28;20058;-10
2022/11/15 12:01:57;;;;;;;5.55;3.70;;;20.10;48.30;;;;;;5113166;28;20392;-10
2022/11/15 12:04:49;;;;;;;5.18;4.20;;;20.10;48.40;;;;;;5113215;28;20047;-10
2022/11/15 12:07:27;;;;;;;4.18;3.60;;;20.10;48.40;;;;;;5112799;28;20169;-10
2022/11/15 12:10:03;;;;;;;7.90;3.97;;;20.10;48.30;;;;;;5112980;28;20502;-10
2022/11/15 12:12:44;;;;;;;5.82;3.83;;;20.10;48.30;;;;;;5113070;28;20104;-10
2022/11/15 12:15:25;;;;;;;5.78;4.22;;;20.20;48.30;;;;;;5113206;28;20410;-10
2022/11/15 12:17:53;;;;;;;8.30;4.60;;;20.20;48.30;;;;;;5113333;28;20100;-10
2022/11/15 12:20:29;;;;;;;6.65;4.00;;;20.20;48.20;;;;;;5113050;28;20059;-10
2022/11/15 12:23:16;;;;;;;6.75;4.05;;;20.20;48.20;;;;;;5112874;28;20101;-10
2022/11/15 12:26:00;;;;;;;5.90;4.35;;;20.20;48.20;;;;;;5113591;28;20047;-10
2022/11/15 12:28:47;;;;;;;6.28;4.25;;;20.20;48.20;;;;;;5113080;28;20047;-10
2022/11/15 12:31:16;;;;;;;5.05;4.07;;;20.30;48.20;;;;;;5112777;28;20126;-10
2022/11/15 12:33:44;;;;;;;5.82;4.05;;;20.30;48.20;;;;;;5111916;28;20051;-10
2022/11/15 12:36:23;;;;;;;8.27;4.00;;;20.30;48.20;;;;;;5112756;28;20511;-10
2022/11/15 12:38:51;;;;;;;5.00;3.90;;;20.30;48.20;;;;;;5109220;28;20048;-10
2022/11/15 12:41:19;;;;;;;4.72;4.15;;;20.30;48.20;;;;;;5112643;28;20055;-10
2022/11/15 12:43:46;;;;;;;5.63;3.97;;;20.30;48.20;;;;;;5112760;28;20051;-10
2022/11/15 12:46:28;;;;;;;4.15;3.58;;;20.30;48.10;;;;;;5112559;28;20078;-10
2022/11/15 12:48:55;;;;;;;6.15;4.22;;;20.30;48.00;;;;;;5112682;28;20055;-10
2022/11/15 12:51:41;;;;;;;5.18;4.00;;;20.30;48.00;;;;;;5114778;28;20104;-11
2022/11/15 12:54:22;;;;;;;5.32;4.25;;;20.30;48.00;;;;;;5116157;28;20468;-10
2022/11/15 12:57:07;;;;;;;;;;;20.30;48.00;;;;;;5117309;28;20051;-10
2022/11/15 13:00:02;;;;;;;5.93;3.88;;;20.30;48.00;;;;;;5116140;28;19981;-10
2022/11/15 13:02:30;;;;;;;7.63;4.22;;;20.30;48.00;;;;;;5116007;28;20060;-11
2022/11/15 13:05:19;;;;;;;5.82;4.20;;;20.30;48.00;;;;;;5115974;28;20406;-10
2022/11/15 13:07:45;;;;;;;5.78;3.72;;;20.40;48.00;;;;;;5116075;28;20074;-10
2022/11/15 13:10:13;;;;;;;6.95;4.32;;;20.30;48.00;;;;;;5115942;28;20483;-10
2022/11/15 13:12:46;;;;;;;5.22;4.50;;;20.30;48.00;;;;;;5115966;28;20054;-10
2022/11/15 13:15:12;;;;;;;4.75;3.90;;;20.30;48.00;;;;;;5116315;28;20394;-10
2022/11/15 13:17:54;;;;;;;5.45;4.20;;;20.30;48.00;;;;;;5115891;28;20047;-10
2022/11/15 13:20:26;;;;;;;5.03;3.78;;;20.30;48.00;;;;;;5115891;28;20056;-10
2022/11/15 13:22:59;;;;;;;4.88;3.88;;;20.30;48.00;;;;;;5115736;28;20048;-10
2022/11/15 13:25:54;;;;;;;5.60;4.20;;;20.30;48.00;;;;;;5098039;28;20048;-10
2022/11/15 13:28:41;;;;;;;8.10;4.40;;;20.30;48.00;;;;;;5103906;28;20056;-10
2022/11/15 13:31:35;;;;;;;6.82;4.53;;;20.30;48.00;;;;;;5097163;28;20051;-11
2022/11/15 13:34:15;;;;;;;5.07;3.33;;;20.30;48.10;;;;;;5115717;28;20052;-10
2022/11/15 13:36:41;;;;;;;8.40;4.32;;;20.30;48.10;;;;;;5116031;28;20138;-10
2022/11/15 13:39:31;;;;;;;4.18;3.60;;;20.30;48.00;;;;;;5115221;28;20181;-10
2022/11/15 13:41:58;;;;;;;5.43;4.30;;;20.30;48.10;;;;;;5115742;28;20052;-10
2022/11/15 13:44:31;;;;;;;5.25;4.00;;;20.30;48.10;;;;;;5115396;28;20436;-10
2022/11/15 13:47:06;;;;;;;5.57;3.80;;;20.30;48.10;;;;;;5115226;28;20430;-10
2022/11/15 13:49:33;;;;;;;6.10;4.07;;;20.30;48.10;;;;;;5111494;28;20051;-10
2022/11/15 13:52:02;;;;;;;3.85;3.53;;;20.30;48.10;;;;;;5115171;28;20051;-10
2022/11/15 13:54:38;;;;;;;7.05;3.97;;;20.20;48.10;;;;;;5115486;28;20059;-10
2022/11/15 13:57:21;;;;;;;4.40;3.95;;;20.30;48.10;;;;;;5115191;28;20066;-10
2022/11/15 13:59:56;;;;;;;6.03;3.72;;;20.30;48.10;;;;;;5115598;28;20131;-10
2022/11/15 14:02:31;;;;;;;6.78;4.70;;;20.30;48.10;;;;;;5114337;28;20480;-10
2022/11/15 14:05:21;;;;;;;5.22;3.80;;;20.30;48.60;;;;;;5115568;28;20047;-10
2022/11/15 14:08:03;;;;;;;5.72;3.63;;;20.30;48.10;;;;;;5115119;28;20076;-10
2022/11/15 14:10:33;;;;;;;3.85;3.28;;;20.30;48.20;;;;;;5115233;28;20503;-10
2022/11/15 14:13:00;;;;;;;3.97;3.45;;;20.20;48.10;;;;;;5114403;28;20056;-10
2022/11/15 14:15:33;;;;;;;4.43;3.60;;;20.20;48.10;;;;;;5095199;28;20081;-10
2022/11/15 14:18:00;;;;;;;4.63;3.67;;;20.30;48.20;;;;;;5115202;28;20074;-10
2022/11/15 14:20:38;;;;;;;4.40;3.58;;;20.20;48.10;;;;;;5114859;28;20059;-10
2022/11/15 14:23:27;;;;;;;5.40;3.72;;;20.20;48.20;;;;;;5114657;28;20055;-11
2022/11/15 14:25:59;;;;;;;4.18;3.78;;;20.20;48.20;;;;;;5114904;28;20040;-11
2022/11/15 14:28:24;;;;;;;6.85;4.10;;;20.20;48.20;;;;;;5114675;28;20047;-11
2022/11/15 14:30:56;;;;;;;5.03;3.78;;;20.20;48.20;;;;;;5114640;28;20142;-11